Time;durP1;ratioP1;P1;durP2;ratioP2;P2;SDS_P1;SDS_P2;PMS_P1;PMS_P2;Temp;Humidity;BMP_temperature;BMP_pressure;BME280_temperature;BME280_humidity;BME280_pressure;Samples;Min_cycle;Max_cycle;Signal;HPM_P1;HPM_P2
2022/09/05 00:00:18;;;;;;;13.55;7.38;;;;;;;;;;5012193;28;20063;-80
2022/09/05 00:02:50;;;;;;;9.95;7.20;;;;;;;;;;4994758;28;20077;-80
2022/09/05 00:05:36;;;;;;;12.55;7.18;;;;;;;;;;4998632;28;20403;-82
2022/09/05 00:08:45;;;;;;;10.43;7.65;;;;;;;;;;5002887;28;20142;-81
2022/09/05 00:11:18;;;;;;;10.60;7.22;;;;;;;;;;4976965;28;20054;-79
2022/09/05 00:14:31;;;;;;;10.77;7.10;;;;;;;;;;5003935;28;20125;-80
2022/09/05 00:17:36;;;;;;;10.43;7.93;;;;;;;;;;5005941;28;20137;-80
2022/09/05 00:20:58;;;;;;;9.60;7.18;;;;;;;;;;5004625;28;20068;-81
2022/09/05 00:23:50;;;;;;;12.30;7.10;;;;;;;;;;4958756;29;20138;-78
2022/09/05 00:26:43;;;;;;;11.57;8.05;;;;;;;;;;4989522;28;20057;-81
2022/09/05 00:29:21;;;;;;;10.15;7.72;;;;;;;;;;4990333;28;20058;-78
2022/09/05 00:32:15;;;;;;;13.90;8.10;;;;;;;;;;4990229;28;20052;-79
2022/09/05 00:35:00;;;;;;;11.70;7.88;;;;;;;;;;4991160;28;20226;-78
2022/09/05 00:37:30;;;;;;;11.25;7.43;;;;;;;;;;4989971;28;20109;-79
2022/09/05 00:40:11;;;;;;;11.20;7.47;;;;;;;;;;4989920;28;20058;-79
2022/09/05 00:42:46;;;;;;;12.80;8.18;;;;;;;;;;4998914;28;20394;-81
2022/09/05 00:45:23;;;;;;;11.90;8.15;;;;;;;;;;5013551;28;20057;-80
2022/09/05 00:47:53;;;;;;;10.95;7.63;;;;;;;;;;5006395;28;20049;-81
2022/09/05 00:50:34;;;;;;;11.55;7.80;;;;;;;;;;5020749;28;20053;-81
2022/09/05 00:53:21;;;;;;;14.27;7.93;;;;;;;;;;5021809;28;20050;-81
2022/09/05 00:56:06;;;;;;;10.00;7.72;;;;;;;;;;5022561;28;20113;-81
2022/09/05 00:58:52;;;;;;;13.35;7.45;;;;;;;;;;5023546;28;20053;-79
2022/09/05 01:01:19;;;;;;;;;;;;;;;;;;5029296;28;20050;-80
2022/09/05 01:03:52;;;;;;;9.50;7.82;;;;;;;;;;5027556;28;19921;-79
2022/09/05 01:06:36;;;;;;;9.40;7.60;;;;;;;;;;5028435;28;20042;-80
2022/09/05 01:09:09;;;;;;;10.27;7.85;;;;;;;;;;5025899;28;20053;-80
2022/09/05 01:11:43;;;;;;;10.50;8.02;;;;;;;;;;5026432;28;20053;-82
2022/09/05 01:14:09;;;;;;;10.38;8.15;;;;;;;;;;5028640;28;20076;-82
2022/09/05 01:16:56;;;;;;;11.27;8.00;;;;;;;;;;5035890;28;20089;-82
2022/09/05 01:19:26;;;;;;;9.57;7.75;;;;;;;;;;5030104;28;20054;-81
2022/09/05 01:22:11;;;;;;;12.18;8.57;;;;;;;;;;5027325;28;20077;-82
2022/09/05 01:24:37;;;;;;;11.70;8.97;;;;;;;;;;5009075;28;20030;-80
2022/09/05 01:27:27;;;;;;;12.40;8.00;;;;;;;;;;5028312;28;20053;-80
2022/09/05 01:30:14;;;;;;;12.13;8.40;;;;;;;;;;5010013;28;20482;-80
2022/09/05 01:32:59;;;;;;;14.20;8.88;;;;;;;;;;5026565;28;20085;-81
2022/09/05 01:35:34;;;;;;;15.27;9.00;;;;;;;;;;5026763;28;20054;-80
2022/09/05 01:38:19;;;;;;;12.90;9.07;;;;;;;;;;5022087;28;20144;-79
2022/09/05 01:40:57;;;;;;;15.25;9.75;;;;;;;;;;5016449;28;20091;-80
2022/09/05 01:43:49;;;;;;;13.85;8.90;;;;;;;;;;5011763;28;20054;-80
2022/09/05 01:46:28;;;;;;;11.88;8.95;;;;;;;;;;4994288;28;20061;-80
2022/09/05 01:48:57;;;;;;;15.82;9.35;;;;;;;;;;5027323;28;20050;-80
2022/09/05 01:51:27;;;;;;;12.75;9.20;;;;;;;;;;5028421;28;20126;-81
2022/09/05 01:54:05;;;;;;;12.30;9.07;;;;;;;;;;5028793;28;20050;-81
2022/09/05 01:56:45;;;;;;;17.35;10.30;;;;;;;;;;5028701;28;20101;-81
2022/09/05 01:59:17;;;;;;;16.58;9.73;;;;;;;;;;5029018;28;20173;-80
2022/09/05 02:02:02;;;;;;;12.55;9.80;;;;;;;;;;5035903;28;20045;-80
2022/09/05 02:04:29;;;;;;;16.05;10.45;;;;;;;;;;5032365;28;20044;-82
2022/09/05 02:07:19;;;;;;;13.95;11.02;;;;;;;;;;5028522;28;20081;-79
2022/09/05 02:10:15;;;;;;;15.93;11.27;;;;;;;;;;5025621;28;20054;-81
2022/09/05 02:12:47;;;;;;;14.40;10.98;;;;;;;;;;5027339;28;20145;-80
2022/09/05 02:15:37;;;;;;;13.60;10.43;;;;;;;;;;5014351;28;20058;-79
2022/09/05 02:18:06;;;;;;;15.98;10.68;;;;;;;;;;5011855;28;20058;-79
2022/09/05 02:20:42;;;;;;;12.52;9.82;;;;;;;;;;5013390;28;20084;-78
2022/09/05 02:23:22;;;;;;;11.63;9.40;;;;;;;;;;5013655;28;20133;-79
2022/09/05 02:26:08;;;;;;;13.18;10.23;;;;;;;;;;5008514;28;20049;-79
2022/09/05 02:28:50;;;;;;;12.20;9.65;;;;;;;;;;4998693;28;20077;-79
2022/09/05 02:31:23;;;;;;;14.10;10.93;;;;;;;;;;4999223;28;20096;-80
2022/09/05 02:33:55;;;;;;;15.13;11.55;;;;;;;;;;4998849;28;20058;-78
2022/09/05 02:36:38;;;;;;;16.77;10.00;;;;;;;;;;4999908;28;20127;-80
2022/09/05 02:39:28;;;;;;;15.30;11.38;;;;;;;;;;4998634;28;20064;-82
2022/09/05 02:42:20;;;;;;;23.05;12.90;;;;;;;;;;4999039;28;20054;-80
2022/09/05 02:45:27;;;;;;;18.90;14.00;;;;;;;;;;5007245;28;20423;-82
2022/09/05 02:47:54;;;;;;;18.70;13.73;;;;;;;;;;5006356;28;20054;-81
2022/09/05 02:50:21;;;;;;;21.45;14.90;;;;;;;;;;5003964;28;20054;-80
2022/09/05 02:53:09;;;;;;;20.90;14.55;;;;;;;;;;5001632;28;20050;-80
2022/09/05 02:55:56;;;;;;;19.30;15.15;;;;;;;;;;5002603;28;20054;-80
2022/09/05 02:58:54;;;;;;;21.23;16.00;;;;;;;;;;5002221;28;20057;-79
2022/09/05 03:01:41;;;;;;;21.17;15.07;;;;;;;;;;5003509;28;20050;-80
2022/09/05 03:04:22;;;;;;;20.40;15.25;;;;;;;;;;5003845;28;20046;-80
2022/09/05 03:06:57;;;;;;;22.85;17.15;;;;;;;;;;5004119;28;20483;-79
2022/09/05 03:09:42;;;;;;;24.15;18.20;;;;;;;;;;4997119;28;20318;-80
2022/09/05 03:12:14;;;;;;;26.38;17.73;;;;;;;;;;4992343;28;20125;-77
2022/09/05 03:15:09;;;;;;;22.00;15.85;;;;;;;;;;4996251;28;20120;-80
2022/09/05 03:17:52;;;;;;;20.67;15.93;;;;;;;;;;4995218;28;20345;-81
2022/09/05 03:20:37;;;;;;;18.60;14.48;;;;;;;;;;4994471;28;20128;-80
2022/09/05 03:23:27;;;;;;;19.20;15.45;;;;;;;;;;4997721;28;20113;-83
2022/09/05 03:26:01;;;;;;;19.00;14.98;;;;;;;;;;4995596;28;20057;-80
2022/09/05 03:28:54;;;;;;;22.98;16.02;;;;;;;;;;5000875;28;20125;-80
2022/09/05 03:31:53;;;;;;;23.73;16.52;;;;;;;;;;4986421;28;20042;-81
2022/09/05 03:34:22;;;;;;;20.75;16.40;;;;;;;;;;4961422;28;20074;-80
2022/09/05 03:36:51;;;;;;;20.17;16.05;;;;;;;;;;5003199;28;20137;-80
2022/09/05 03:39:35;;;;;;;27.75;17.33;;;;;;;;;;5000743;28;20120;-80
2022/09/05 03:42:09;;;;;;;24.33;17.23;;;;;;;;;;5002523;28;20058;-81
2022/09/05 03:44:40;;;;;;;22.58;17.23;;;;;;;;;;5021307;28;20109;-80
2022/09/05 03:47:09;;;;;;;26.27;17.73;;;;;;;;;;5003670;28;20265;-80
2022/09/05 03:49:51;;;;;;;24.98;17.83;;;;;;;;;;5019393;28;20053;-80
2022/09/05 03:52:48;;;;;;;23.58;18.05;;;;;;;;;;5020947;28;20419;-81
2022/09/05 03:55:49;;;;;;;23.35;18.27;;;;;;;;;;5023510;28;20050;-80
2022/09/05 03:58:36;;;;;;;21.85;16.67;;;;;;;;;;5022279;28;20054;-82
2022/09/05 04:01:34;;;;;;;23.38;16.83;;;;;;;;;;5020208;28;20046;-80
2022/09/05 04:04:33;;;;;;;19.35;15.68;;;;;;;;;;5015847;28;20072;-78
2022/09/05 04:07:29;;;;;;;18.65;14.23;;;;;;;;;;5017573;28;20053;-82
2022/09/05 04:10:27;;;;;;;18.90;13.67;;;;;;;;;;5018882;28;20281;-81
2022/09/05 04:12:54;;;;;;;18.65;14.35;;;;;;;;;;5019982;28;20088;-80
2022/09/05 04:15:20;;;;;;;20.58;14.05;;;;;;;;;;5019196;28;20084;-80
2022/09/05 04:17:49;;;;;;;15.55;12.60;;;;;;;;;;5019197;28;20072;-80
2022/09/05 04:20:24;;;;;;;22.50;15.50;;;;;;;;;;5001941;28;20113;-81
2022/09/05 04:23:09;;;;;;;22.27;15.90;;;;;;;;;;5020449;28;20088;-81
2022/09/05 04:25:38;;;;;;;20.73;14.82;;;;;;;;;;5021614;28;20050;-81
2022/09/05 04:28:14;;;;;;;19.45;13.38;;;;;;;;;;5016983;28;20615;-82
2022/09/05 04:30:40;;;;;;;;;;;;;;;;;;5018783;28;20122;-83
2022/09/05 04:33:24;;;;;;;26.02;15.43;;;;;;;;;;5018984;28;19937;-81
2022/09/05 04:36:14;;;;;;;23.17;16.95;;;;;;;;;;5020047;28;20317;-81
2022/09/05 04:38:44;;;;;;;22.25;17.20;;;;;;;;;;5018310;28;20061;-79
2022/09/05 04:41:16;;;;;;;21.38;16.33;;;;;;;;;;5021417;28;20127;-78
2022/09/05 04:43:48;;;;;;;20.98;15.57;;;;;;;;;;5013074;28;20082;-81
2022/09/05 04:46:14;;;;;;;19.75;14.45;;;;;;;;;;5009243;28;20100;-80
2022/09/05 04:49:03;;;;;;;24.65;14.60;;;;;;;;;;5003152;28;20136;-80
2022/09/05 04:51:34;;;;;;;21.65;14.70;;;;;;;;;;5002938;28;20042;-80
2022/09/05 04:54:15;;;;;;;21.83;14.27;;;;;;;;;;5004500;28;20074;-81
2022/09/05 04:56:45;;;;;;;21.13;14.65;;;;;;;;;;4987666;28;20050;-80
2022/09/05 04:59:30;;;;;;;19.35;14.05;;;;;;;;;;5000485;28;20046;-81
2022/09/05 05:02:25;;;;;;;18.20;13.00;;;;;;;;;;4997681;28;20046;-80
2022/09/05 05:05:17;;;;;;;19.65;13.73;;;;;;;;;;4991663;28;20046;-82
2022/09/05 05:08:14;;;;;;;20.70;13.32;;;;;;;;;;4983443;28;20430;-80
2022/09/05 05:10:44;;;;;;;22.95;15.45;;;;;;;;;;4999237;28;20237;-82
2022/09/05 05:13:53;;;;;;;19.27;15.05;;;;;;;;;;4998104;28;20495;-80
2022/09/05 05:16:41;;;;;;;26.70;14.38;;;;;;;;;;4986364;28;20058;-81
2022/09/05 05:19:30;;;;;;;22.23;14.60;;;;;;;;;;4999346;28;20050;-81
2022/09/05 05:21:58;;;;;;;21.17;13.80;;;;;;;;;;5000928;28;20566;-81
2022/09/05 05:24:28;;;;;;;21.17;13.13;;;;;;;;;;5001120;28;20406;-80
2022/09/05 05:27:04;;;;;;;19.95;13.60;;;;;;;;;;4985339;28;20114;-80
2022/09/05 05:29:36;;;;;;;19.52;13.35;;;;;;;;;;5002214;28;20086;-80
2022/09/05 05:32:03;;;;;;;20.52;13.88;;;;;;;;;;5003806;28;20133;-80
2022/09/05 05:34:41;;;;;;;19.48;13.90;;;;;;;;;;5001281;28;20046;-81
2022/09/05 05:37:20;;;;;;;18.33;13.98;;;;;;;;;;5000176;28;20179;-79
2022/09/05 05:39:50;;;;;;;17.75;13.23;;;;;;;;;;4976799;28;20050;-79
2022/09/05 05:42:19;;;;;;;18.70;13.05;;;;;;;;;;4981197;28;20106;-79
2022/09/05 05:44:57;;;;;;;20.58;12.13;;;;;;;;;;4972438;28;20125;-80
2022/09/05 05:47:40;;;;;;;19.63;12.98;;;;;;;;;;4971630;28;20137;-79
2022/09/05 05:50:20;;;;;;;17.42;12.77;;;;;;;;;;4970380;28;20141;-79
2022/09/05 05:53:13;;;;;;;17.92;12.63;;;;;;;;;;4984162;28;20557;-79
2022/09/05 05:56:07;;;;;;;18.25;11.55;;;;;;;;;;4955921;28;20705;-78
2022/09/05 05:58:36;;;;;;;18.42;11.88;;;;;;;;;;4981469;28;20077;-78
2022/09/05 06:01:12;;;;;;;16.80;13.13;;;;;;;;;;4988606;28;20093;-79
2022/09/05 06:03:58;;;;;;;19.90;13.87;;;;;;;;;;4994336;28;20076;-79
2022/09/05 06:06:40;;;;;;;20.98;14.38;;;;;;;;;;4997366;28;20141;-79
2022/09/05 06:09:20;;;;;;;22.42;14.90;;;;;;;;;;4994321;28;20046;-80
2022/09/05 06:12:19;;;;;;;21.30;14.65;;;;;;;;;;4997914;28;20140;-80
2022/09/05 06:15:25;;;;;;;21.88;13.65;;;;;;;;;;4979434;28;20137;-80
2022/09/05 06:18:13;;;;;;;23.20;14.30;;;;;;;;;;4997672;28;20137;-80
2022/09/05 06:20:58;;;;;;;22.95;13.60;;;;;;;;;;4995448;28;20062;-80
2022/09/05 06:23:44;;;;;;;19.38;13.82;;;;;;;;;;4994353;28;20084;-79
2022/09/05 06:26:19;;;;;;;22.40;12.70;;;;;;;;;;4994257;28;20070;-78
2022/09/05 06:29:11;;;;;;;22.25;13.85;;;;;;;;;;4992136;28;20069;-80
2022/09/05 06:31:49;;;;;;;19.58;13.05;;;;;;;;;;5011041;28;20085;-80
2022/09/05 06:34:16;;;;;;;24.35;13.80;;;;;;;;;;5011025;28;20080;-79
2022/09/05 06:37:16;;;;;;;18.00;13.52;;;;;;;;;;5012374;28;20550;-80
2022/09/05 06:39:55;;;;;;;19.65;13.35;;;;;;;;;;5011208;28;20046;-79
2022/09/05 06:42:28;;;;;;;22.35;15.13;;;;;;;;;;5013562;28;20133;-79
2022/09/05 06:45:08;;;;;;;;;;;;;;;;;;5011655;28;20049;-78
2022/09/05 06:47:57;;;;;;;21.88;12.82;;;;;;;;;;4996963;28;20169;-79
2022/09/05 06:50:30;;;;;;;17.85;12.45;;;;;;;;;;5010575;28;20581;-79
2022/09/05 06:53:22;;;;;;;14.32;11.60;;;;;;;;;;5011332;28;20046;-79
2022/09/05 06:56:01;;;;;;;16.77;11.85;;;;;;;;;;5011752;28;20054;-79
2022/09/05 06:58:31;;;;;;;18.15;11.88;;;;;;;;;;5010219;28;20096;-77
2022/09/05 07:00:58;;;;;;;15.45;11.57;;;;;;;;;;5011850;28;20129;-78
2022/09/05 07:03:45;;;;;;;15.77;11.70;;;;;;;;;;5012636;28;20486;-80
2022/09/05 07:06:30;;;;;;;19.67;11.90;;;;;;;;;;5013370;28;20046;-79
2022/09/05 07:09:28;;;;;;;14.60;11.23;;;;;;;;;;5014753;28;20060;-80
2022/09/05 07:11:55;;;;;;;16.40;11.70;;;;;;;;;;5017515;28;20081;-79
2022/09/05 07:14:24;;;;;;;17.75;11.60;;;;;;;;;;5004211;28;20088;-78
2022/09/05 07:16:57;;;;;;;16.73;11.10;;;;;;;;;;5014600;28;20149;-76
2022/09/05 07:19:29;;;;;;;15.90;11.02;;;;;;;;;;5009120;28;20084;-79
2022/09/05 07:22:15;;;;;;;17.02;10.98;;;;;;;;;;5011781;28;20049;-79
2022/09/05 07:25:04;;;;;;;16.83;9.65;;;;;;;;;;5010477;28;20056;-79
2022/09/05 07:27:43;;;;;;;14.52;9.80;;;;;;;;;;5012394;28;20046;-79
2022/09/05 07:30:30;;;;;;;20.63;9.90;;;;;;;;;;5010077;28;20046;-78
2022/09/05 07:32:57;;;;;;;13.38;9.55;;;;;;;;;;5012174;28;20084;-79
2022/09/05 07:35:28;;;;;;;16.20;8.93;;;;;;;;;;5010969;28;20050;-79
2022/09/05 07:38:14;;;;;;;14.45;8.65;;;;;;;;;;5010986;28;20049;-78
2022/09/05 07:40:52;;;;;;;13.90;7.50;;;;;;;;;;5012567;28;20100;-79
2022/09/05 07:43:22;;;;;;;15.07;8.38;;;;;;;;;;5002186;28;20113;-79
2022/09/05 07:46:01;;;;;;;10.07;7.07;;;;;;;;;;5011493;28;20057;-78
2022/09/05 07:48:30;;;;;;;14.55;7.28;;;;;;;;;;5012596;28;20060;-77
2022/09/05 07:51:01;;;;;;;15.45;7.53;;;;;;;;;;5013311;28;20050;-79
2022/09/05 07:53:48;;;;;;;12.25;6.53;;;;;;;;;;5010164;28;20045;-79
2022/09/05 07:56:46;;;;;;;13.40;5.85;;;;;;;;;;5011968;28;20053;-79
2022/09/05 07:59:34;;;;;;;16.55;6.45;;;;;;;;;;5001735;28;20046;-78
2022/09/05 08:02:01;;;;;;;11.27;5.82;;;;;;;;;;4994062;28;20096;-80
2022/09/05 08:04:27;;;;;;;10.85;5.93;;;;;;;;;;4997602;28;20092;-80
2022/09/05 08:06:55;;;;;;;9.25;5.82;;;;;;;;;;4998944;28;20054;-80
2022/09/05 08:09:46;;;;;;;10.85;6.07;;;;;;;;;;4995211;28;20118;-78
2022/09/05 08:12:53;;;;;;;9.45;6.32;;;;;;;;;;5003893;28;20053;-79
2022/09/05 08:15:48;;;;;;;14.40;6.10;;;;;;;;;;5020296;28;20049;-80
2022/09/05 08:18:48;;;;;;;13.95;6.45;;;;;;;;;;5015224;28;20544;-78
2022/09/05 08:21:34;;;;;;;15.85;6.72;;;;;;;;;;5015094;28;20482;-79
2022/09/05 08:24:07;;;;;;;11.98;6.28;;;;;;;;;;5017307;28;20072;-79
2022/09/05 08:26:58;;;;;;;10.45;5.43;;;;;;;;;;5016455;28;20081;-79
2022/09/05 08:29:30;;;;;;;8.57;5.53;;;;;;;;;;5013586;28;20129;-78
2022/09/05 08:32:12;;;;;;;9.32;4.80;;;;;;;;;;5013527;28;20049;-79
2022/09/05 08:34:39;;;;;;;7.20;4.90;;;;;;;;;;5013270;28;20073;-80
2022/09/05 08:37:13;;;;;;;9.82;4.70;;;;;;;;;;5017879;28;20537;-79
2022/09/05 08:40:01;;;;;;;8.40;5.25;;;;;;;;;;5015983;28;20052;-80
2022/09/05 08:42:46;;;;;;;11.35;5.40;;;;;;;;;;5012622;28;20645;-79
2022/09/05 08:45:45;;;;;;;6.03;4.60;;;;;;;;;;4988418;28;20047;-79
2022/09/05 08:48:44;;;;;;;12.93;4.80;;;;;;;;;;5011971;28;20448;-79
2022/09/05 08:51:18;;;;;;;6.78;4.70;;;;;;;;;;5015048;28;20108;-80
2022/09/05 08:53:44;;;;;;;8.07;4.68;;;;;;;;;;5013512;28;20413;-79
2022/09/05 08:56:18;;;;;;;10.45;4.82;;;;;;;;;;5015265;28;20057;-78
2022/09/05 08:58:52;;;;;;;8.10;4.35;;;;;;;;;;5008917;28;20054;-79
2022/09/05 09:01:53;;;;;;;10.35;4.97;;;;;;;;;;4994523;28;20058;-79
2022/09/05 09:05:01;;;;;;;9.73;4.63;;;;;;;;;;4995406;28;20054;-80
2022/09/05 09:07:37;;;;;;;8.18;4.60;;;;;;;;;;5000886;28;20077;-80
2022/09/05 09:10:35;;;;;;;9.25;4.40;;;;;;;;;;5010010;28;20050;-79
2022/09/05 09:13:15;;;;;;;11.25;4.10;;;;;;;;;;5011016;28;20050;-79
2022/09/05 09:15:41;;;;;;;8.57;3.70;;;;;;;;;;4999071;28;20145;-79
2022/09/05 09:18:15;;;;;;;7.22;3.63;;;;;;;;;;4999619;28;20085;-79
2022/09/05 09:20:47;;;;;;;5.35;3.33;;;;;;;;;;5001158;28;20117;-79
2022/09/05 09:23:16;;;;;;;7.47;3.35;;;;;;;;;;4999319;28;20112;-79
2022/09/05 09:26:04;;;;;;;4.35;3.10;;;;;;;;;;5000178;28;20050;-80
2022/09/05 09:28:49;;;;;;;7.50;3.17;;;;;;;;;;5002244;28;20125;-80
2022/09/05 09:31:27;;;;;;;5.78;3.00;;;;;;;;;;5004131;28;20061;-78
2022/09/05 09:33:53;;;;;;;3.53;2.83;;;;;;;;;;4977455;28;20046;-79
2022/09/05 09:36:35;;;;;;;3.88;2.60;;;;;;;;;;4996885;28;20138;-78
2022/09/05 09:39:17;;;;;;;8.63;3.28;;;;;;;;;;4992383;28;20052;-79
2022/09/05 09:42:33;;;;;;;5.30;3.20;;;;;;;;;;4993183;28;20072;-78
2022/09/05 09:45:02;;;;;;;7.93;3.20;;;;;;;;;;4990644;28;20050;-79
2022/09/05 09:47:52;;;;;;;7.88;3.10;;;;;;;;;;5005675;28;20064;-78
2022/09/05 09:50:26;;;;;;;5.82;3.15;;;;;;;;;;5000252;28;20116;-78
2022/09/05 09:53:13;;;;;;;5.50;2.88;;;;;;;;;;4994538;28;20474;-78
2022/09/05 09:55:40;;;;;;;3.70;2.58;;;;;;;;;;4986714;28;20125;-78
2022/09/05 09:58:25;;;;;;;5.22;2.38;;;;;;;;;;4980322;28;20050;-79
2022/09/05 10:01:12;;;;;;;8.48;2.70;;;;;;;;;;4976007;28;20110;-80
2022/09/05 10:03:59;;;;;;;5.03;2.80;;;;;;;;;;4975801;28;20433;-77
2022/09/05 10:06:45;;;;;;;4.13;2.50;;;;;;;;;;4986969;28;20307;-79
2022/09/05 10:09:50;;;;;;;3.53;2.53;;;;;;;;;;4984156;28;20046;-80
2022/09/05 10:12:53;;;;;;;4.10;2.83;;;;;;;;;;4974600;28;20086;-79
2022/09/05 10:15:37;;;;;;;5.97;2.50;;;;;;;;;;4994232;28;20125;-80
2022/09/05 10:18:18;;;;;;;4.63;2.65;;;;;;;;;;4992850;28;20054;-78
2022/09/05 10:21:01;;;;;;;3.58;2.67;;;;;;;;;;4975931;28;20054;-79
2022/09/05 10:24:01;;;;;;;2.70;2.35;;;;;;;;;;4993231;28;20057;-80
2022/09/05 10:26:33;;;;;;;3.95;2.63;;;;;;;;;;4990377;28;20064;-79
2022/09/05 10:29:05;;;;;;;3.13;2.22;;;;;;;;;;4996882;28;20042;-79
2022/09/05 10:32:07;;;;;;;5.03;2.55;;;;;;;;;;4984688;28;20050;-79
2022/09/05 10:35:09;;;;;;;2.78;2.38;;;;;;;;;;4979665;28;20051;-80
2022/09/05 10:37:53;;;;;;;4.72;2.70;;;;;;;;;;4996031;28;20077;-80
2022/09/05 10:40:21;;;;;;;3.90;2.72;;;;;;;;;;4996213;28;20085;-79
2022/09/05 10:42:48;;;;;;;3.65;2.55;;;;;;;;;;4983586;28;21338;-81
2022/09/05 10:45:31;;;;;;;5.30;2.30;;;;;;;;;;5003674;28;20104;-80
2022/09/05 10:48:16;;;;;;;2.78;2.47;;;;;;;;;;4999605;28;20052;-80
2022/09/05 10:50:43;;;;;;;4.95;2.60;;;;;;;;;;4996881;28;20084;-79
2022/09/05 10:53:29;;;;;;;5.38;2.65;;;;;;;;;;4982238;28;20136;-80
2022/09/05 10:56:11;;;;;;;2.70;2.33;;;;;;;;;;4982977;28;20062;-79
2022/09/05 10:58:44;;;;;;;4.78;2.30;;;;;;;;;;4997138;28;20054;-79
2022/09/05 11:01:32;;;;;;;4.80;2.58;;;;;;;;;;4992599;28;20621;-79
2022/09/05 11:04:31;;;;;;;8.05;2.72;;;;;;;;;;4992870;28;20129;-79
2022/09/05 11:07:17;;;;;;;5.85;2.90;;;;;;;;;;4992326;28;20077;-79
2022/09/05 11:10:13;;;;;;;3.92;2.75;;;;;;;;;;4999266;28;20062;-79
2022/09/05 11:12:58;;;;;;;6.13;2.70;;;;;;;;;;4999685;28;20094;-81
2022/09/05 11:15:33;;;;;;;5.55;2.53;;;;;;;;;;4994654;28;20073;-79
2022/09/05 11:18:05;;;;;;;4.53;2.90;;;;;;;;;;4976189;28;20082;-80
2022/09/05 11:20:43;;;;;;;2.72;2.30;;;;;;;;;;4995912;28;20081;-79
2022/09/05 11:23:18;;;;;;;4.68;2.53;;;;;;;;;;4998789;28;20057;-80
2022/09/05 11:25:46;;;;;;;2.83;2.20;;;;;;;;;;5001020;28;20054;-80
2022/09/05 11:28:18;;;;;;;4.18;2.20;;;;;;;;;;5000753;28;20046;-81
2022/09/05 11:30:49;;;;;;;3.30;2.35;;;;;;;;;;4984327;28;20460;-80
2022/09/05 11:33:38;;;;;;;4.70;2.40;;;;;;;;;;4982233;28;20065;-80
2022/09/05 11:36:37;;;;;;;3.85;2.60;;;;;;;;;;4977395;28;20059;-80
2022/09/05 11:39:30;;;;;;;3.30;2.40;;;;;;;;;;4975333;28;20055;-79
2022/09/05 11:42:35;;;;;;;2.70;2.10;;;;;;;;;;4975566;28;20059;-79
2022/09/05 11:45:04;;;;;;;4.07;3.38;;;;;;;;;;4992772;28;20538;-79
2022/09/05 11:47:50;;;;;;;3.10;2.50;;;;;;;;;;4999018;28;20114;-79
2022/09/05 11:50:19;;;;;;;4.50;2.17;;;;;;;;;;5000570;28;20061;-78
2022/09/05 11:52:50;;;;;;;3.40;2.28;;;;;;;;;;4977392;28;20125;-78
2022/09/05 11:55:19;;;;;;;3.35;2.40;;;;;;;;;;4994654;28;20050;-78
2022/09/05 11:58:05;;;;;;;3.08;2.20;;;;;;;;;;4997955;28;20046;-77
2022/09/05 12:00:54;;;;;;;4.25;2.40;;;;;;;;;;4995847;28;20151;-78
2022/09/05 12:04:07;;;;;;;5.78;2.35;;;;;;;;;;5010620;28;20498;-79
2022/09/05 12:06:57;;;;;;;5.28;2.40;;;;;;;;;;5010407;28;20096;-79
2022/09/05 12:09:32;;;;;;;3.67;2.60;;;;;;;;;;5010640;28;20461;-79
2022/09/05 12:12:23;;;;;;;4.55;2.67;;;;;;;;;;5009941;28;20054;-79
2022/09/05 12:15:08;;;;;;;5.07;2.25;;;;;;;;;;5010698;28;20089;-79
2022/09/05 12:17:57;;;;;;;4.05;2.53;;;;;;;;;;5022632;28;20049;-79
2022/09/05 12:20:28;;;;;;;4.03;2.20;;;;;;;;;;5018652;28;20093;-79
2022/09/05 12:23:10;;;;;;;4.50;1.98;;;;;;;;;;5023945;28;20046;-79
2022/09/05 12:26:04;;;;;;;6.13;2.28;;;;;;;;;;5025654;28;20073;-79
2022/09/05 12:28:56;;;;;;;3.85;2.08;;;;;;;;;;5020345;28;20137;-79
2022/09/05 12:31:45;;;;;;;4.28;1.90;;;;;;;;;;5006978;28;20050;-79
2022/09/05 12:34:48;;;;;;;3.47;1.95;;;;;;;;;;5004333;28;20157;-79
2022/09/05 12:37:37;;;;;;;3.38;2.33;;;;;;;;;;5007825;28;20050;-79
2022/09/05 12:40:27;;;;;;;6.38;3.97;;;;;;;;;;4991199;28;20064;-80
2022/09/05 12:43:16;;;;;;;6.85;2.95;;;;;;;;;;5001022;28;20058;-79
2022/09/05 12:46:12;;;;;;;6.05;2.60;;;;;;;;;;5005153;28;20365;-79
2022/09/05 12:49:00;;;;;;;4.63;2.80;;;;;;;;;;5000401;28;20065;-80
2022/09/05 12:51:35;;;;;;;7.10;3.13;;;;;;;;;;5001010;28;20306;-80
2022/09/05 12:54:26;;;;;;;6.00;3.08;;;;;;;;;;5004284;28;20053;-78
2022/09/05 12:57:08;;;;;;;5.03;3.25;;;;;;;;;;5005411;28;20050;-79
2022/09/05 12:59:56;;;;;;;5.03;4.05;;;;;;;;;;4992020;28;20050;-79
2022/09/05 13:02:45;;;;;;;6.90;3.47;;;;;;;;;;4985913;28;20050;-79
2022/09/05 13:05:56;;;;;;;6.97;3.35;;;;;;;;;;4999038;28;20058;-79
2022/09/05 13:08:26;;;;;;;9.25;3.38;;;;;;;;;;5002738;28;20301;-79
2022/09/05 13:10:56;;;;;;;6.00;3.47;;;;;;;;;;5002062;28;20069;-79
2022/09/05 13:13:48;;;;;;;7.68;3.10;;;;;;;;;;4996993;28;20062;-78
2022/09/05 13:16:38;;;;;;;5.57;3.65;;;;;;;;;;4992576;28;20050;-78
2022/09/05 13:19:20;;;;;;;7.07;3.63;;;;;;;;;;4994038;28;20926;-79
2022/09/05 13:21:49;;;;;;;8.23;3.60;;;;;;;;;;4989554;28;20108;-78
2022/09/05 13:24:26;;;;;;;5.45;3.30;;;;;;;;;;4993110;28;20132;-79
2022/09/05 13:26:58;;;;;;;11.70;3.75;;;;;;;;;;4995930;28;20057;-78
2022/09/05 13:29:52;;;;;;;7.60;3.50;;;;;;;;;;4991755;28;20133;-77
2022/09/05 13:32:42;;;;;;;6.32;3.40;;;;;;;;;;4994695;28;20038;-78
2022/09/05 13:35:35;;;;;;;9.48;3.50;;;;;;;;;;4992122;28;20046;-79
2022/09/05 13:38:26;;;;;;;6.22;3.47;;;;;;;;;;4994559;28;20418;-78
2022/09/05 13:41:16;;;;;;;4.72;3.83;;;;;;;;;;5001974;28;20050;-80
2022/09/05 13:43:54;;;;;;;4.47;3.42;;;;;;;;;;4993985;28;20054;-83
2022/09/05 13:46:40;;;;;;;4.18;3.30;;;;;;;;;;5010985;28;20046;-81
2022/09/05 13:49:18;;;;;;;6.85;3.70;;;;;;;;;;5009644;28;20081;-82
2022/09/05 13:51:54;;;;;;;7.57;3.53;;;;;;;;;;5006356;28;20054;-83
2022/09/05 13:54:35;;;;;;;9.77;3.00;;;;;;;;;;5012346;28;20070;-83
2022/09/05 13:57:20;;;;;;;12.60;3.88;;;;;;;;;;5002031;28;20079;-81
2022/09/05 14:00:18;;;;;;;5.80;2.90;;;;;;;;;;5003436;28;21019;-83
2022/09/05 14:03:09;;;;;;;5.65;3.03;;;;;;;;;;5004454;28;20046;-82
2022/09/05 14:06:01;;;;;;;4.15;3.05;;;;;;;;;;5011298;28;20340;-81
2022/09/05 14:08:54;;;;;;;5.00;3.10;;;;;;;;;;4994487;28;20046;-81
2022/09/05 14:11:47;;;;;;;5.68;3.05;;;;;;;;;;5007269;28;20056;-80
2022/09/05 14:14:19;;;;;;;7.35;3.25;;;;;;;;;;5006428;28;20053;-80
2022/09/05 14:17:10;;;;;;;5.90;3.67;;;;;;;;;;5010905;28;20061;-82
2022/09/05 14:22:58;;;;;;;9.00;4.20;;;;;;;;;;5009659;28;20066;-82
2022/09/05 14:25:28;;;;;;;6.65;3.88;;;;;;;;;;5002615;28;20061;-81
2022/09/05 14:27:59;;;;;;;6.22;3.78;;;;;;;;;;4991542;28;20073;-82
2022/09/05 14:30:38;;;;;;;7.75;3.63;;;;;;;;;;5001896;28;20077;-82
2022/09/05 14:33:34;;;;;;;10.75;6.13;;;;;;;;;;5002289;28;20058;-80
2022/09/05 14:36:23;;;;;;;9.40;5.00;;;;;;;;;;4989043;28;20042;-80
2022/09/05 14:39:28;;;;;;;8.25;4.50;;;;;;;;;;5001912;28;20043;-79
2022/09/05 14:42:13;;;;;;;9.90;4.72;;;;;;;;;;5006347;28;20054;-81
2022/09/05 14:44:47;;;;;;;10.80;5.73;;;;;;;;;;4996884;28;20042;-82
2022/09/05 14:47:25;;;;;;;9.63;5.50;;;;;;;;;;5010868;28;20047;-80
2022/09/05 14:50:13;;;;;;;8.73;5.88;;;;;;;;;;5010573;28;20054;-81
2022/09/05 14:53:00;;;;;;;10.18;5.63;;;;;;;;;;5010516;28;20046;-80
2022/09/05 14:56:08;;;;;;;8.32;5.60;;;;;;;;;;5008298;28;20050;-83
2022/09/05 14:59:27;;;;;;;11.13;5.57;;;;;;;;;;5007514;28;20050;-81
2022/09/05 15:02:20;;;;;;;8.63;5.47;;;;;;;;;;5019450;28;20140;-82
2022/09/05 15:05:12;;;;;;;8.85;5.78;;;;;;;;;;5013967;28;20157;-82
2022/09/05 15:07:40;;;;;;;11.60;5.97;;;;;;;;;;5010856;28;20052;-82
2022/09/05 15:10:16;;;;;;;9.75;5.63;;;;;;;;;;5027217;28;20068;-82
2022/09/05 15:13:11;;;;;;;11.13;6.07;;;;;;;;;;5027724;28;20117;-83
2022/09/05 15:15:51;;;;;;;9.55;5.80;;;;;;;;;;5029623;28;20638;-82
2022/09/05 15:18:34;;;;;;;10.65;6.07;;;;;;;;;;5026986;28;20058;-78
2022/09/05 15:21:19;;;;;;;11.05;6.25;;;;;;;;;;5012019;28;20168;-83
2022/09/05 15:24:16;;;;;;;10.80;6.82;;;;;;;;;;5027323;28;20070;-81
2022/09/05 15:26:47;;;;;;;10.40;6.65;;;;;;;;;;5028173;28;20052;-82
2022/09/05 15:29:19;;;;;;;9.55;6.45;;;;;;;;;;5026971;28;19961;-82
2022/09/05 15:31:46;;;;;;;12.32;6.55;;;;;;;;;;5028284;28;20081;-82
2022/09/05 15:34:30;;;;;;;15.02;6.95;;;;;;;;;;5028182;28;20121;-82
2022/09/05 15:36:57;;;;;;;9.57;6.80;;;;;;;;;;5028153;28;20041;-82
2022/09/05 15:39:43;;;;;;;7.72;6.10;;;;;;;;;;5024890;28;20113;-81
2022/09/05 15:42:17;;;;;;;9.93;6.38;;;;;;;;;;5027504;28;20450;-81
2022/09/05 15:44:43;;;;;;;7.68;5.18;;;;;;;;;;5019764;28;20558;-80
2022/09/05 15:47:31;;;;;;;9.63;5.18;;;;;;;;;;5028612;28;20117;-82
2022/09/05 15:50:00;;;;;;;13.63;6.15;;;;;;;;;;5029262;28;20058;-81
2022/09/05 15:52:33;;;;;;;8.50;5.93;;;;;;;;;;5029345;28;20057;-84
2022/09/05 15:55:09;;;;;;;6.38;5.35;;;;;;;;;;5027935;28;20088;-80
2022/09/05 15:57:35;;;;;;;7.57;4.88;;;;;;;;;;5033700;28;20033;-83
2022/09/05 16:00:07;;;;;;;7.28;5.25;;;;;;;;;;5002048;28;20034;-82
2022/09/05 16:02:42;;;;;;;9.10;5.32;;;;;;;;;;5011677;28;20081;-82
2022/09/05 16:05:10;;;;;;;7.85;5.43;;;;;;;;;;4991583;28;20134;-82